Archival Weather

Central Park

Central Park, New York (KNYC)

Report from: Tuesday, September 19, 2023 1:51 PM EDT
Current time: Tuesday, July 16, 2024 6:04 AM EDT

Current weather – Weather history – Daily summaries
Weather forecast

Temperature21.7°C (71.1°F)
Dew point10.0°C (50.0°F)
Winds 6 kts (3.1 m/s, 6.9 mph) Vrb
Winds variableWinds variable
Visibility10 mi. (16.1 km)
Clouds Few clouds 5,000 ft. (1,524 m)
Altimeter29.97 in.Hg (1015 mB)
Relative humidity47 %
Density altitude934 ft. (285 m)
Sea-level pressure101.4 kPa (1014 mB, 29.94 in.Hg)
Max temp last 6 hours22.2°C (72.0°F)
Min temp last 6 hours15.0°C (59.0°F)
Remarks Fully automated report
System requires maintenance
Automated weather observing station with precipitation discriminator
Pressure rising, then falling
Flight conditions Visual Meteorological Conditions
Raw dataKNYC 191751Z AUTO VRB06KT 10SM FEW050 22/10 A2997 RMK AO2 SLP139 T02170100 10222 20150 50001 $
An error has occurred. This application may no longer respond until reloaded. Reload 🗙